createdAt,value
2018-09-18T00:00:37.579Z,63.43
2018-09-18T00:03:04.598Z,62.86
2018-09-18T00:05:31.631Z,62.53
2018-09-18T00:07:58.648Z,63.20
2018-09-18T00:10:25.634Z,62.64
2018-09-18T00:12:52.593Z,63.02
2018-09-18T00:15:19.599Z,62.94
2018-09-18T00:17:46.674Z,63.40
2018-09-18T00:20:13.697Z,63.21
2018-09-18T00:22:40.855Z,62.46
2018-09-18T00:25:07.906Z,63.06
2018-09-18T00:27:34.895Z,62.59
2018-09-18T00:30:01.921Z,63.31
2018-09-18T00:32:28.975Z,63.17
2018-09-18T00:34:55.914Z,63.14
2018-09-18T00:37:23.106Z,63.16
2018-09-18T00:39:50.116Z,63.41
2018-09-18T00:42:17.099Z,63.30
2018-09-18T00:44:44.106Z,63.39
2018-09-18T00:47:11.106Z,62.80
2018-09-18T00:49:38.104Z,63.40
2018-09-18T00:52:05.091Z,62.60
2018-09-18T00:54:32.089Z,62.76
2018-09-18T00:56:59.073Z,63.14
2018-09-18T00:59:26.137Z,63.33
2018-09-18T01:01:53.166Z,63.08
2018-09-18T01:04:20.131Z,63.03
2018-09-18T01:06:47.268Z,63.27
2018-09-18T01:09:14.248Z,63.27
2018-09-18T01:11:41.315Z,63.26
2018-09-18T01:14:08.336Z,62.61
2018-09-18T01:16:35.706Z,62.70
2018-09-18T01:19:02.712Z,63.32
2018-09-18T01:21:29.729Z,63.06
2018-09-18T01:23:56.650Z,62.64
2018-09-18T01:26:23.677Z,62.71
2018-09-18T01:28:50.650Z,63.29
2018-09-18T01:31:17.673Z,62.79
2018-09-18T01:33:44.678Z,62.59
2018-09-18T01:36:11.631Z,63.16
2018-09-18T01:38:38.610Z,62.75
2018-09-18T01:41:05.606Z,63.35
2018-09-18T01:43:32.572Z,63.25
2018-09-18T01:45:59.551Z,62.56
2018-09-18T01:48:26.550Z,63.29
2018-09-18T01:50:53.619Z,62.42
2018-09-18T01:53:20.650Z,62.77
2018-09-18T01:55:47.669Z,63.37
2018-09-18T01:58:14.676Z,63.39
2018-09-18T02:00:41.682Z,63.41
2018-09-18T02:03:08.640Z,63.17
2018-09-18T02:05:35.669Z,62.76
2018-09-18T02:08:02.799Z,62.81
2018-09-18T02:10:29.805Z,63.46
2018-09-18T02:12:56.762Z,63.26
2018-09-18T02:15:23.827Z,62.78
2018-09-18T02:17:50.789Z,63.42
2018-09-18T02:20:17.930Z,63.00
2018-09-18T02:22:44.959Z,62.75
2018-09-18T02:25:11.917Z,63.48
2018-09-18T02:27:38.860Z,63.21
2018-09-18T02:30:05.902Z,62.60
2018-09-18T02:32:32.884Z,63.31
2018-09-18T02:35:00.048Z,63.39
2018-09-18T02:37:27.041Z,62.60
2018-09-18T02:39:54.012Z,63.15
2018-09-18T02:42:21.721Z,63.20
2018-09-18T02:44:48.792Z,62.51
2018-09-18T02:47:15.760Z,63.31
2018-09-18T02:49:42.776Z,63.36
2018-09-18T02:52:09.834Z,63.22
2018-09-18T02:54:36.872Z,62.55
2018-09-18T02:57:03.816Z,62.69
2018-09-18T02:59:30.878Z,62.99
2018-09-18T03:01:57.879Z,62.58
2018-09-18T03:04:24.835Z,63.34
2018-09-18T03:06:51.962Z,63.49
2018-09-18T03:09:18.981Z,62.76
2018-09-18T03:11:46.039Z,63.24
2018-09-18T03:14:13.109Z,63.56
2018-09-18T03:16:40.186Z,62.70
2018-09-18T03:19:07.162Z,62.54
2018-09-18T03:21:34.328Z,62.96
2018-09-18T03:24:01.280Z,62.89
2018-09-18T03:26:28.251Z,63.00
2018-09-18T03:28:55.250Z,63.20
2018-09-18T03:31:22.322Z,63.51
2018-09-18T03:33:49.241Z,62.91
2018-09-18T03:36:16.227Z,63.50
2018-09-18T03:38:43.317Z,63.41
2018-09-18T03:41:10.254Z,63.23
2018-09-18T03:43:37.227Z,62.78
2018-09-18T03:46:04.207Z,62.59
2018-09-18T03:48:31.347Z,63.42
2018-09-18T03:50:58.318Z,63.57
2018-09-18T03:53:25.388Z,63.38
2018-09-18T03:55:52.338Z,63.54
2018-09-18T03:58:19.296Z,63.27
2018-09-18T04:00:46.320Z,62.96
2018-09-18T04:03:13.275Z,63.18
2018-09-18T04:05:40.248Z,63.74
2018-09-18T04:08:07.241Z,63.21
2018-09-18T04:10:34.206Z,63.53
2018-09-18T04:13:01.308Z,62.99
2018-09-18T04:15:28.329Z,62.95
2018-09-18T04:17:55.664Z,63.32
2018-09-18T04:20:22.766Z,63.53
2018-09-18T04:22:49.786Z,63.10
2018-09-18T04:25:16.778Z,62.76
2018-09-18T04:27:43.793Z,62.71
2018-09-18T04:30:10.888Z,62.68
2018-09-18T04:32:37.905Z,62.88
2018-09-18T04:35:04.925Z,62.88
2018-09-18T04:37:31.938Z,63.23
2018-09-18T04:39:58.966Z,63.40
2018-09-18T04:42:25.958Z,63.62
2018-09-18T04:44:52.969Z,63.48
2018-09-18T04:47:20.022Z,63.66
2018-09-18T04:49:47.042Z,62.98
2018-09-18T04:52:13.976Z,63.19
2018-09-18T04:54:40.964Z,63.68
2018-09-18T04:57:08.126Z,63.56
2018-09-18T04:59:35.180Z,63.67
2018-09-18T05:02:02.346Z,62.70
2018-09-18T05:04:29.443Z,63.48
2018-09-18T05:06:56.462Z,62.84
2018-09-18T05:09:23.477Z,62.96
2018-09-18T05:11:50.443Z,62.83
2018-09-18T05:14:17.394Z,62.89
2018-09-18T05:16:44.386Z,63.57
2018-09-18T05:19:11.422Z,63.29
2018-09-18T05:21:38.489Z,62.95
2018-09-18T05:24:05.462Z,63.67
2018-09-18T05:26:32.477Z,63.37
2018-09-18T05:28:59.521Z,62.81
2018-09-18T05:31:26.685Z,63.33
2018-09-18T05:33:53.709Z,62.93
2018-09-18T05:36:20.783Z,62.95
2018-09-18T05:38:47.780Z,63.23
2018-09-18T05:41:14.738Z,62.52
2018-09-18T05:43:41.684Z,63.22
2018-09-18T05:46:08.613Z,62.27
2018-09-18T05:48:36.434Z,62.77
2018-09-18T05:51:03.822Z,62.23
2018-09-18T05:53:30.799Z,63.04
2018-09-18T05:55:57.748Z,62.58
2018-09-18T05:58:24.764Z,62.67
2018-09-18T06:00:51.715Z,62.60
2018-09-18T06:03:18.710Z,62.52
2018-09-18T06:05:45.796Z,62.75
2018-09-18T06:08:12.742Z,62.66
2018-09-18T06:10:39.706Z,62.03
2018-09-18T06:13:06.798Z,62.19
2018-09-18T06:15:33.757Z,61.10
2018-09-18T06:18:00.774Z,61.63
2018-09-18T06:20:27.807Z,61.00
2018-09-18T06:22:54.875Z,61.31
2018-09-18T06:25:21.835Z,61.64
2018-09-18T06:27:48.922Z,61.69
2018-09-18T06:30:15.853Z,61.72
2018-09-18T06:32:42.787Z,62.45
2018-09-18T06:35:09.786Z,61.87
2018-09-18T06:37:36.765Z,61.71
2018-09-18T06:40:03.713Z,62.50
2018-09-18T06:42:30.765Z,61.77
2018-09-18T06:44:57.784Z,60.35
2018-09-18T06:47:24.701Z,59.87
2018-09-18T06:49:51.613Z,59.93
2018-09-18T06:52:18.549Z,59.19
2018-09-18T06:54:45.483Z,59.20
2018-09-18T06:57:12.409Z,60.05
2018-09-18T06:59:39.308Z,60.24
2018-09-18T07:02:06.219Z,61.48
2018-09-18T07:04:33.128Z,61.74
2018-09-18T07:07:00.042Z,61.97
2018-09-18T07:09:26.956Z,61.58
2018-09-18T07:11:53.866Z,62.72
2018-09-18T07:14:20.809Z,62.35
2018-09-18T07:16:47.785Z,62.08
2018-09-18T07:19:15.242Z,62.21
2018-09-18T07:21:42.150Z,62.50
2018-09-18T07:24:09.049Z,62.83
2018-09-18T07:26:35.956Z,62.01
2018-09-18T07:29:02.860Z,62.36
2018-09-18T07:31:29.802Z,61.69
2018-09-18T07:33:56.761Z,62.08
2018-09-18T07:36:23.643Z,61.96
2018-09-18T07:38:50.567Z,61.34
2018-09-18T07:41:17.468Z,61.11
2018-09-18T07:43:44.381Z,61.79
2018-09-18T07:46:11.282Z,61.25
2018-09-18T07:48:39.142Z,61.82
2018-09-18T07:51:07.095Z,61.99
2018-09-18T07:53:34.143Z,61.79
2018-09-18T07:56:01.369Z,61.69
2018-09-18T07:58:28.462Z,61.73
2018-09-18T08:00:55.528Z,61.81
2018-09-18T08:03:22.564Z,61.60
2018-09-18T08:05:49.633Z,61.85
2018-09-18T08:08:16.618Z,61.32
2018-09-18T08:10:43.907Z,62.03
2018-09-18T08:13:10.870Z,61.15
2018-09-18T08:15:37.973Z,62.05
2018-09-18T08:18:04.965Z,61.31
2018-09-18T08:20:31.943Z,62.05
2018-09-18T08:22:58.947Z,61.71
2018-09-18T08:25:26.011Z,61.66
2018-09-18T08:27:52.874Z,62.19
2018-09-18T08:30:19.913Z,61.63
2018-09-18T08:32:46.906Z,62.06
2018-09-18T08:35:13.823Z,61.36
2018-09-18T08:37:40.745Z,62.39
2018-09-18T08:40:07.728Z,62.20
2018-09-18T08:42:34.585Z,61.88
2018-09-18T08:45:01.511Z,61.56
2018-09-18T08:47:28.612Z,62.02
2018-09-18T08:49:55.656Z,61.80
2018-09-18T08:52:22.602Z,61.83
2018-09-18T08:54:49.534Z,61.65
2018-09-18T08:57:16.478Z,62.05
2018-09-18T08:59:43.417Z,62.23
2018-09-18T09:02:10.309Z,61.48
2018-09-18T09:04:37.235Z,61.86
2018-09-18T09:07:04.137Z,61.83
2018-09-18T09:09:31.117Z,62.33
2018-09-18T09:11:58.022Z,61.56
2018-09-18T09:14:25.005Z,61.85
2018-09-18T09:16:51.844Z,62.23
2018-09-18T09:19:18.816Z,61.49
2018-09-18T09:21:45.802Z,62.36
2018-09-18T09:24:12.730Z,61.87
2018-09-18T09:26:39.808Z,61.90
2018-09-18T09:29:06.724Z,61.83
2018-09-18T09:31:33.716Z,61.89
2018-09-18T09:34:00.747Z,62.18
2018-09-18T09:36:27.782Z,62.27
2018-09-18T09:38:54.802Z,62.03
2018-09-18T09:41:21.759Z,62.50
2018-09-18T09:43:48.846Z,61.67
2018-09-18T09:46:15.865Z,62.61
2018-09-18T09:48:42.852Z,62.32
2018-09-18T09:51:09.822Z,62.61
2018-09-18T09:53:36.770Z,61.98
2018-09-18T09:56:03.937Z,62.73
2018-09-18T09:58:30.913Z,62.20
2018-09-18T10:01:03.215Z,62.67
2018-09-18T10:03:30.207Z,62.02
2018-09-18T10:05:57.195Z,62.14
2018-09-18T10:08:24.268Z,62.01
2018-09-18T10:10:51.408Z,62.32
2018-09-18T10:13:18.325Z,62.20
2018-09-18T10:15:45.387Z,62.42
2018-09-18T10:18:12.474Z,62.08
2018-09-18T10:20:39.429Z,62.88
2018-09-18T10:23:06.456Z,62.25
2018-09-18T10:25:33.438Z,63.09
2018-09-18T10:28:00.448Z,63.00
2018-09-18T10:30:27.470Z,62.52
2018-09-18T10:32:54.496Z,63.01
2018-09-18T10:35:21.484Z,62.84
2018-09-18T10:37:48.499Z,62.35
2018-09-18T10:40:15.513Z,62.42
2018-09-18T10:42:42.517Z,63.11
2018-09-18T10:45:09.851Z,63.29
2018-09-18T10:47:37.187Z,62.30
2018-09-18T10:50:04.170Z,62.50
2018-09-18T10:52:31.414Z,62.56
2018-09-18T10:54:58.385Z,62.67
2018-09-18T10:57:25.379Z,63.27
2018-09-18T10:59:52.408Z,62.64
2018-09-18T11:02:19.488Z,62.64
2018-09-18T11:04:46.397Z,62.60
2018-09-18T11:07:13.435Z,63.13
2018-09-18T11:09:40.433Z,62.58
2018-09-18T11:12:07.485Z,63.17
2018-09-18T11:14:34.514Z,62.71
2018-09-18T11:17:01.460Z,62.67
2018-09-18T11:19:28.466Z,63.35
2018-09-18T11:21:55.484Z,62.62
2018-09-18T11:24:22.466Z,62.72
2018-09-18T11:26:49.477Z,63.33
2018-09-18T11:29:16.500Z,62.79
2018-09-18T11:31:43.490Z,63.47
2018-09-18T11:34:10.481Z,62.44
2018-09-18T11:36:37.474Z,62.99
2018-09-18T11:39:05.082Z,62.51
2018-09-18T11:41:32.073Z,62.92
2018-09-18T11:43:59.053Z,62.75
2018-09-18T11:46:26.044Z,63.44
2018-09-18T11:48:53.109Z,63.34
2018-09-18T11:51:20.518Z,63.50
2018-09-18T11:53:47.527Z,63.12
2018-09-18T11:56:14.486Z,63.47
2018-09-18T11:58:41.453Z,62.98
2018-09-18T12:01:08.455Z,63.24
2018-09-18T12:03:35.467Z,63.26
2018-09-18T12:06:02.444Z,62.73
2018-09-18T12:08:29.421Z,63.32
2018-09-18T12:10:56.545Z,63.35
2018-09-18T12:13:23.534Z,63.30
2018-09-18T12:15:50.729Z,62.95
2018-09-18T12:18:17.666Z,63.34
2018-09-18T12:20:44.698Z,62.75
2018-09-18T12:23:11.676Z,63.31
2018-09-18T12:25:38.656Z,63.52
2018-09-18T12:28:05.625Z,63.41
2018-09-18T12:30:32.649Z,63.32
2018-09-18T12:32:59.602Z,63.23
2018-09-18T12:35:26.630Z,63.06
2018-09-18T12:37:53.657Z,63.28
2018-09-18T12:40:20.654Z,63.43
2018-09-18T12:42:47.586Z,63.28
2018-09-18T12:45:14.534Z,63.23
2018-09-18T12:47:41.523Z,63.29
2018-09-18T12:50:08.592Z,63.31
2018-09-18T12:52:35.505Z,63.13
2018-09-18T12:55:02.531Z,63.45
2018-09-18T12:57:29.677Z,62.83
2018-09-18T12:59:56.597Z,63.21
2018-09-18T13:02:23.631Z,63.03
2018-09-18T13:04:50.526Z,63.29
2018-09-18T13:07:17.502Z,62.96
2018-09-18T13:09:44.441Z,62.95
2018-09-18T13:12:11.472Z,63.29
2018-09-18T13:14:38.472Z,62.98
2018-09-18T13:17:05.334Z,62.61
2018-09-18T13:26:33.504Z,62.66
2018-09-18T13:29:00.462Z,63.24
2018-09-18T13:31:27.417Z,62.61
2018-09-18T13:33:54.342Z,62.42
2018-09-18T13:36:21.313Z,62.92
2018-09-18T13:38:48.209Z,63.17
2018-09-18T13:41:15.241Z,62.94
2018-09-18T13:43:42.246Z,62.28
2018-09-18T13:46:09.484Z,62.45
2018-09-18T13:48:36.440Z,62.47
2018-09-18T13:51:03.371Z,62.99
2018-09-18T13:53:30.624Z,63.12
2018-09-18T13:55:57.626Z,63.46
2018-09-18T13:58:24.554Z,62.90
2018-09-18T14:00:51.515Z,63.32
2018-09-18T14:03:18.478Z,63.11
2018-09-18T14:05:45.448Z,62.83
2018-09-18T14:08:12.401Z,63.12
2018-09-18T14:10:39.371Z,63.08
2018-09-18T14:13:06.493Z,62.65
2018-09-18T14:15:33.439Z,62.79
2018-09-18T14:18:00.388Z,63.26
2018-09-18T14:20:27.356Z,62.56
2018-09-18T14:22:54.291Z,62.99
2018-09-18T14:25:21.229Z,62.42
2018-09-18T14:27:48.167Z,62.82
2018-09-18T14:30:15.133Z,62.70
2018-09-18T14:32:42.114Z,62.55
2018-09-18T14:35:09.391Z,62.41
2018-09-18T14:37:36.482Z,62.01
2018-09-18T14:40:03.640Z,62.70
2018-09-18T14:42:30.697Z,61.73
2018-09-18T14:44:57.745Z,61.89
2018-09-18T14:47:24.706Z,62.45
2018-09-18T14:49:51.664Z,62.45
2018-09-18T14:52:18.578Z,61.37
2018-09-18T14:54:45.517Z,61.25
2018-09-18T14:57:12.480Z,61.59
2018-09-18T14:59:39.503Z,62.11
2018-09-18T15:02:07.504Z,61.83
2018-09-18T15:04:34.553Z,62.24
2018-09-18T15:07:01.746Z,62.11
2018-09-18T15:09:28.669Z,62.25
2018-09-18T15:11:55.682Z,62.54
2018-09-18T15:14:22.708Z,62.59
2018-09-18T15:16:49.608Z,62.38
2018-09-18T15:19:16.578Z,61.76
2018-09-18T15:21:43.587Z,62.30
2018-09-18T15:24:10.471Z,61.81
2018-09-18T15:26:37.442Z,62.06
2018-09-18T15:29:04.441Z,61.44
2018-09-18T15:31:31.407Z,62.18
2018-09-18T15:33:58.386Z,62.07
2018-09-18T15:36:25.343Z,61.88
2018-09-18T15:38:52.336Z,61.81
2018-09-18T15:41:19.285Z,61.98
2018-09-18T15:43:46.810Z,62.36
2018-09-18T15:46:13.814Z,62.35
2018-09-18T15:48:40.771Z,61.62
2018-09-18T15:51:07.733Z,61.81
2018-09-18T15:53:34.751Z,62.44
2018-09-18T15:56:01.713Z,62.24
2018-09-18T15:58:28.877Z,62.49
2018-09-18T16:00:55.847Z,62.28
2018-09-18T16:03:22.775Z,61.78
2018-09-18T16:05:49.709Z,61.76
2018-09-18T16:08:16.672Z,62.19
2018-09-18T16:10:43.605Z,62.14
2018-09-18T16:13:10.545Z,61.80
2018-09-18T16:15:37.516Z,61.79
2018-09-18T16:18:04.514Z,62.08
2018-09-18T16:20:31.476Z,62.44
2018-09-18T16:22:58.529Z,61.50
2018-09-18T16:25:25.466Z,62.07
2018-09-18T16:27:52.453Z,61.55
2018-09-18T16:30:20.057Z,62.14
2018-09-18T16:32:47.022Z,62.06
2018-09-18T16:35:13.997Z,61.91
2018-09-18T16:37:40.981Z,62.09
2018-09-18T16:40:07.967Z,61.46
2018-09-18T16:42:34.939Z,61.68
2018-09-18T16:45:01.879Z,61.10
2018-09-18T16:47:28.812Z,61.88
2018-09-18T16:49:55.767Z,61.82
2018-09-18T16:52:22.736Z,61.43
2018-09-18T16:54:49.715Z,61.50
2018-09-18T16:57:16.676Z,62.15
2018-09-18T16:59:43.689Z,61.83
2018-09-18T17:02:10.682Z,61.19
2018-09-18T17:04:37.601Z,61.20
2018-09-18T17:07:04.816Z,62.33
2018-09-18T17:09:31.762Z,62.51
2018-09-18T17:11:58.722Z,61.84
2018-09-18T17:14:25.674Z,62.19
2018-09-18T17:16:52.595Z,62.35
2018-09-18T17:19:19.605Z,62.25
2018-09-18T17:21:46.581Z,63.40
2018-09-18T17:24:13.534Z,63.14
2018-09-18T17:26:40.504Z,64.19
2018-09-18T17:29:07.476Z,63.95
2018-09-18T17:31:34.417Z,64.31
2018-09-18T17:34:01.345Z,63.71
2018-09-18T17:36:28.593Z,63.81
2018-09-18T17:38:55.525Z,63.91
2018-09-18T17:41:22.448Z,63.45
2018-09-18T17:43:49.384Z,63.00
2018-09-18T17:46:16.349Z,63.52
2018-09-18T17:48:43.289Z,62.76
2018-09-18T17:51:10.342Z,62.80
2018-09-18T17:53:37.357Z,62.83
2018-09-18T17:56:04.308Z,63.50
2018-09-18T17:58:31.366Z,62.94
2018-09-18T18:00:58.404Z,63.27
2018-09-18T18:03:25.388Z,63.29
2018-09-18T18:05:52.664Z,63.67
2018-09-18T18:08:19.698Z,63.66
2018-09-18T18:10:46.633Z,62.65
2018-09-18T18:13:13.611Z,63.35
2018-09-18T18:15:40.641Z,62.60
2018-09-18T18:18:07.630Z,62.86
2018-09-18T18:20:34.725Z,62.69
2018-09-18T18:23:01.762Z,63.35
2018-09-18T18:25:28.727Z,63.26
2018-09-18T18:27:55.771Z,62.69
2018-09-18T18:30:22.766Z,63.04
2018-09-18T18:32:49.763Z,62.75
2018-09-18T18:35:16.838Z,63.04
2018-09-18T18:37:43.883Z,63.14
2018-09-18T18:40:10.893Z,62.96
2018-09-18T18:42:37.877Z,63.70
2018-09-18T18:45:05.191Z,63.36
2018-09-18T18:47:33.673Z,62.95
2018-09-18T18:50:02.703Z,63.05
2018-09-18T18:52:30.881Z,63.60
2018-09-18T18:54:57.950Z,62.85
2018-09-18T18:57:24.964Z,63.50
2018-09-18T18:59:52.037Z,63.67
2018-09-18T19:02:19.135Z,63.75
2018-09-18T19:04:46.095Z,63.86
2018-09-18T19:07:13.797Z,63.73
2018-09-18T19:09:41.323Z,63.45
2018-09-18T19:12:08.502Z,63.02
2018-09-18T19:14:35.642Z,63.53
2018-09-18T19:17:02.732Z,63.02
2018-09-18T19:19:29.921Z,63.13
2018-09-18T19:21:57.050Z,63.65
2018-09-18T19:24:24.270Z,63.52
2018-09-18T19:26:51.495Z,63.65
2018-09-18T19:29:18.709Z,63.33
2018-09-18T19:31:46.259Z,63.72
2018-09-18T19:34:13.458Z,63.58
2018-09-18T19:36:43.021Z,63.01
2018-09-18T19:39:10.908Z,63.54
2018-09-18T19:41:38.182Z,63.16
2018-09-18T19:44:05.931Z,63.01
2018-09-18T19:46:34.994Z,63.53
2018-09-18T19:49:02.426Z,63.45
2018-09-18T19:51:29.529Z,63.26
2018-09-18T19:53:57.090Z,63.61
2018-09-18T19:56:25.834Z,63.56
2018-09-18T19:58:53.971Z,63.66
2018-09-18T20:01:21.822Z,63.30
2018-09-18T20:03:48.874Z,63.45
2018-09-18T20:06:15.896Z,63.19
2018-09-18T20:08:42.927Z,63.22
2018-09-18T20:11:09.937Z,62.94
2018-09-18T20:13:36.925Z,63.24
2018-09-18T20:16:03.918Z,63.59
2018-09-18T20:18:30.920Z,63.65
2018-09-18T20:20:57.990Z,63.77
2018-09-18T20:23:24.988Z,63.66
2018-09-18T20:25:52.041Z,63.24
2018-09-18T20:28:19.067Z,63.33
2018-09-18T20:30:46.055Z,63.10
2018-09-18T20:33:12.984Z,63.22
2018-09-18T20:35:40.012Z,63.38
2018-09-18T20:38:06.990Z,63.55
2018-09-18T20:40:33.971Z,62.93
2018-09-18T20:43:00.969Z,63.59
2018-09-18T20:45:27.965Z,63.73
2018-09-18T20:47:55.072Z,63.06
2018-09-18T20:50:24.060Z,63.80
2018-09-18T20:52:51.067Z,62.95
2018-09-18T20:55:18.046Z,63.72
2018-09-18T20:57:45.005Z,63.89
2018-09-18T21:00:11.993Z,63.61
2018-09-18T21:02:38.948Z,63.71
2018-09-18T21:05:05.917Z,63.73
2018-09-18T21:07:32.864Z,63.69
2018-09-18T21:09:59.861Z,63.80
2018-09-18T21:12:26.826Z,63.06
2018-09-18T21:14:53.814Z,63.80
2018-09-18T21:17:20.755Z,63.16
2018-09-18T21:19:47.752Z,63.80
2018-09-18T21:22:14.825Z,63.34
2018-09-18T21:24:41.801Z,63.11
2018-09-18T21:27:08.749Z,62.98
2018-09-18T21:29:35.723Z,63.07
2018-09-18T21:32:02.666Z,63.73
2018-09-18T21:34:29.634Z,63.68
2018-09-18T21:36:56.642Z,63.32
2018-09-18T21:39:23.615Z,63.78
2018-09-18T21:41:50.702Z,63.32
2018-09-18T21:44:17.670Z,63.89
2018-09-18T21:46:44.649Z,63.86
2018-09-18T21:49:11.603Z,63.15
2018-09-18T21:51:38.578Z,63.68
2018-09-18T21:54:05.525Z,63.61
2018-09-18T21:56:32.482Z,63.25
2018-09-18T21:58:59.449Z,64.00
2018-09-18T22:01:26.469Z,63.85
2018-09-18T22:03:53.375Z,63.88
2018-09-18T22:06:20.447Z,63.87
2018-09-18T22:08:47.430Z,63.72
2018-09-18T22:11:14.377Z,63.96
2018-09-18T22:13:41.410Z,63.25
2018-09-18T22:16:08.426Z,64.04
2018-09-18T22:18:35.408Z,63.55
2018-09-18T22:21:02.366Z,63.30
2018-09-18T22:23:29.336Z,63.47
2018-09-18T22:25:56.338Z,63.30
2018-09-18T22:28:23.323Z,63.42
2018-09-18T22:30:50.364Z,63.15
2018-09-18T22:33:17.339Z,63.57
2018-09-18T22:35:44.291Z,63.71
2018-09-18T22:38:11.289Z,63.38
2018-09-18T22:40:38.249Z,63.37
2018-09-18T22:43:05.229Z,63.40
2018-09-18T22:45:32.308Z,63.38
2018-09-18T22:47:59.293Z,64.00
2018-09-18T22:50:26.347Z,63.46
2018-09-18T22:52:53.356Z,63.96
2018-09-18T22:55:20.354Z,63.48
2018-09-18T22:57:47.362Z,64.12
2018-09-18T23:00:14.397Z,63.84
2018-09-18T23:02:41.371Z,64.14
2018-09-18T23:05:08.714Z,64.02
2018-09-18T23:07:35.727Z,64.01
2018-09-18T23:10:03.186Z,63.96
2018-09-18T23:12:30.324Z,64.11
2018-09-18T23:14:57.340Z,63.42
2018-09-18T23:17:24.320Z,63.94
2018-09-18T23:19:51.300Z,63.76
2018-09-18T23:22:18.312Z,64.02
2018-09-18T23:24:45.284Z,64.16
2018-09-18T23:27:12.245Z,63.51
2018-09-18T23:29:39.223Z,64.13
2018-09-18T23:32:06.272Z,63.37
2018-09-18T23:34:33.267Z,63.58
2018-09-18T23:37:00.259Z,63.95
2018-09-18T23:39:27.225Z,63.53
2018-09-18T23:41:54.191Z,64.02
2018-09-18T23:44:21.167Z,63.43
2018-09-18T23:46:48.147Z,63.56
2018-09-18T23:49:15.100Z,64.02
2018-09-18T23:51:42.041Z,63.53
2018-09-18T23:54:09.064Z,63.43
2018-09-18T23:56:36.056Z,63.85
2018-09-18T23:59:03.034Z,63.27
